sensor_id;sensor_type;location;lat;lon;timestamp;P1;durP1;ratioP1;P2;durP2;ratioP2
25057;SDS011;13057;50.978;11.034;2023-02-23T00:01:48;13.07;;;8.10;;
25057;SDS011;13057;50.978;11.034;2023-02-23T00:04:14;16.05;;;8.65;;
25057;SDS011;13057;50.978;11.034;2023-02-23T00:06:42;16.48;;;8.55;;
25057;SDS011;13057;50.978;11.034;2023-02-23T00:09:08;12.25;;;8.57;;
25057;SDS011;13057;50.978;11.034;2023-02-23T00:11:47;14.18;;;8.38;;
25057;SDS011;13057;50.978;11.034;2023-02-23T00:14:15;13.63;;;8.38;;
25057;SDS011;13057;50.978;11.034;2023-02-23T00:16:41;12.20;;;8.63;;
25057;SDS011;13057;50.978;11.034;2023-02-23T00:19:10;11.60;;;7.65;;
25057;SDS011;13057;50.978;11.034;2023-02-23T00:21:38;13.02;;;7.53;;
25057;SDS011;13057;50.978;11.034;2023-02-23T00:24:06;10.38;;;6.90;;
25057;SDS011;13057;50.978;11.034;2023-02-23T00:26:33;10.68;;;7.13;;
25057;SDS011;13057;50.978;11.034;2023-02-23T00:29:01;11.55;;;7.07;;
25057;SDS011;13057;50.978;11.034;2023-02-23T00:31:29;11.50;;;7.38;;
25057;SDS011;13057;50.978;11.034;2023-02-23T00:33:57;10.02;;;7.40;;
25057;SDS011;13057;50.978;11.034;2023-02-23T00:36:26;11.65;;;8.18;;
25057;SDS011;13057;50.978;11.034;2023-02-23T00:38:55;12.68;;;8.48;;
25057;SDS011;13057;50.978;11.034;2023-02-23T00:41:25;14.43;;;9.70;;
25057;SDS011;13057;50.978;11.034;2023-02-23T00:43:54;12.68;;;7.82;;
25057;SDS011;13057;50.978;11.034;2023-02-23T00:46:22;12.27;;;8.32;;
25057;SDS011;13057;50.978;11.034;2023-02-23T00:48:51;11.63;;;7.85;;
25057;SDS011;13057;50.978;11.034;2023-02-23T00:51:20;13.43;;;8.02;;
25057;SDS011;13057;50.978;11.034;2023-02-23T00:53:46;11.55;;;7.30;;
25057;SDS011;13057;50.978;11.034;2023-02-23T00:56:13;10.55;;;7.57;;
25057;SDS011;13057;50.978;11.034;2023-02-23T00:58:41;14.75;;;8.00;;
25057;SDS011;13057;50.978;11.034;2023-02-23T01:01:08;11.65;;;8.07;;
25057;SDS011;13057;50.978;11.034;2023-02-23T01:03:35;15.20;;;7.43;;
25057;SDS011;13057;50.978;11.034;2023-02-23T01:06:03;10.50;;;7.63;;
25057;SDS011;13057;50.978;11.034;2023-02-23T01:08:31;11.45;;;7.60;;
25057;SDS011;13057;50.978;11.034;2023-02-23T01:10:58;12.32;;;7.35;;
25057;SDS011;13057;50.978;11.034;2023-02-23T01:13:29;14.02;;;7.88;;
25057;SDS011;13057;50.978;11.034;2023-02-23T01:15:57;10.45;;;7.65;;
25057;SDS011;13057;50.978;11.034;2023-02-23T01:18:23;11.30;;;7.90;;
25057;SDS011;13057;50.978;11.034;2023-02-23T01:20:49;14.38;;;9.60;;
25057;SDS011;13057;50.978;11.034;2023-02-23T01:23:15;13.18;;;8.32;;
25057;SDS011;13057;50.978;11.034;2023-02-23T01:25:42;9.88;;;6.60;;
25057;SDS011;13057;50.978;11.034;2023-02-23T01:28:09;12.07;;;6.43;;
25057;SDS011;13057;50.978;11.034;2023-02-23T01:30:36;12.95;;;8.50;;
25057;SDS011;13057;50.978;11.034;2023-02-23T01:33:03;12.70;;;8.27;;
25057;SDS011;13057;50.978;11.034;2023-02-23T01:35:29;10.60;;;6.50;;
25057;SDS011;13057;50.978;11.034;2023-02-23T01:37:57;9.43;;;5.95;;
25057;SDS011;13057;50.978;11.034;2023-02-23T01:40:23;9.70;;;6.25;;
25057;SDS011;13057;50.978;11.034;2023-02-23T01:42:54;11.65;;;6.43;;
25057;SDS011;13057;50.978;11.034;2023-02-23T01:45:36;9.10;;;6.30;;
25057;SDS011;13057;50.978;11.034;2023-02-23T01:48:06;8.55;;;6.05;;
25057;SDS011;13057;50.978;11.034;2023-02-23T01:50:41;10.77;;;6.20;;
25057;SDS011;13057;50.978;11.034;2023-02-23T01:53:16;8.27;;;6.20;;
25057;SDS011;13057;50.978;11.034;2023-02-23T01:55:46;8.82;;;5.88;;
25057;SDS011;13057;50.978;11.034;2023-02-23T01:58:15;8.15;;;5.88;;
25057;SDS011;13057;50.978;11.034;2023-02-23T02:00:48;6.68;;;5.63;;
25057;SDS011;13057;50.978;11.034;2023-02-23T02:03:21;8.23;;;6.07;;
25057;SDS011;13057;50.978;11.034;2023-02-23T02:05:53;8.48;;;5.60;;
25057;SDS011;13057;50.978;11.034;2023-02-23T02:08:20;14.93;;;9.32;;
25057;SDS011;13057;50.978;11.034;2023-02-23T02:10:49;7.07;;;5.47;;
25057;SDS011;13057;50.978;11.034;2023-02-23T02:13:21;13.93;;;6.82;;
25057;SDS011;13057;50.978;11.034;2023-02-23T02:15:56;10.20;;;5.32;;
25057;SDS011;13057;50.978;11.034;2023-02-23T02:18:46;7.72;;;5.40;;
25057;SDS011;13057;50.978;11.034;2023-02-23T02:21:33;13.50;;;9.63;;
25057;SDS011;13057;50.978;11.034;2023-02-23T02:24:28;7.22;;;5.15;;
25057;SDS011;13057;50.978;11.034;2023-02-23T02:27:19;7.82;;;5.20;;
25057;SDS011;13057;50.978;11.034;2023-02-23T02:30:22;6.68;;;4.88;;
25057;SDS011;13057;50.978;11.034;2023-02-23T02:33:03;7.35;;;5.20;;
25057;SDS011;13057;50.978;11.034;2023-02-23T02:35:49;9.00;;;5.57;;
25057;SDS011;13057;50.978;11.034;2023-02-23T02:38:42;8.73;;;4.85;;
25057;SDS011;13057;50.978;11.034;2023-02-23T02:41:30;11.93;;;7.72;;
25057;SDS011;13057;50.978;11.034;2023-02-23T02:44:09;6.87;;;5.30;;
25057;SDS011;13057;50.978;11.034;2023-02-23T02:46:46;10.23;;;5.50;;
25057;SDS011;13057;50.978;11.034;2023-02-23T02:51:59;14.13;;;8.27;;
25057;SDS011;13057;50.978;11.034;2023-02-23T02:54:37;11.00;;;7.07;;
25057;SDS011;13057;50.978;11.034;2023-02-23T02:57:05;10.10;;;6.05;;
25057;SDS011;13057;50.978;11.034;2023-02-23T02:59:41;12.75;;;6.28;;
25057;SDS011;13057;50.978;11.034;2023-02-23T03:02:21;11.23;;;5.97;;
25057;SDS011;13057;50.978;11.034;2023-02-23T03:04:59;9.15;;;6.03;;
25057;SDS011;13057;50.978;11.034;2023-02-23T03:07:44;9.45;;;5.88;;
25057;SDS011;13057;50.978;11.034;2023-02-23T03:10:51;13.70;;;9.13;;
25057;SDS011;13057;50.978;11.034;2023-02-23T03:13:42;10.32;;;7.28;;
25057;SDS011;13057;50.978;11.034;2023-02-23T03:16:42;9.70;;;6.35;;
25057;SDS011;13057;50.978;11.034;2023-02-23T03:19:33;9.68;;;6.40;;
25057;SDS011;13057;50.978;11.034;2023-02-23T03:22:25;10.38;;;6.82;;
25057;SDS011;13057;50.978;11.034;2023-02-23T03:25:10;11.43;;;6.40;;
25057;SDS011;13057;50.978;11.034;2023-02-23T03:28:11;9.60;;;6.78;;
25057;SDS011;13057;50.978;11.034;2023-02-23T03:31:10;11.45;;;7.35;;
25057;SDS011;13057;50.978;11.034;2023-02-23T03:34:02;11.57;;;6.85;;
25057;SDS011;13057;50.978;11.034;2023-02-23T03:36:59;12.45;;;7.10;;
25057;SDS011;13057;50.978;11.034;2023-02-23T03:39:44;11.68;;;7.38;;
25057;SDS011;13057;50.978;11.034;2023-02-23T03:42:29;10.75;;;7.25;;
25057;SDS011;13057;50.978;11.034;2023-02-23T03:45:12;12.98;;;7.28;;
25057;SDS011;13057;50.978;11.034;2023-02-23T03:47:55;12.88;;;7.00;;
25057;SDS011;13057;50.978;11.034;2023-02-23T03:50:38;12.00;;;7.03;;
25057;SDS011;13057;50.978;11.034;2023-02-23T03:53:21;13.52;;;7.30;;
25057;SDS011;13057;50.978;11.034;2023-02-23T03:56:05;10.30;;;7.05;;
25057;SDS011;13057;50.978;11.034;2023-02-23T03:58:47;11.25;;;7.07;;
25057;SDS011;13057;50.978;11.034;2023-02-23T04:01:31;10.20;;;6.47;;
25057;SDS011;13057;50.978;11.034;2023-02-23T04:04:11;9.60;;;6.85;;
25057;SDS011;13057;50.978;11.034;2023-02-23T04:06:49;10.25;;;5.85;;
25057;SDS011;13057;50.978;11.034;2023-02-23T04:09:27;10.18;;;6.47;;
25057;SDS011;13057;50.978;11.034;2023-02-23T04:12:10;10.20;;;7.13;;
25057;SDS011;13057;50.978;11.034;2023-02-23T04:15:00;15.75;;;6.47;;
25057;SDS011;13057;50.978;11.034;2023-02-23T04:17:48;8.60;;;6.38;;
25057;SDS011;13057;50.978;11.034;2023-02-23T04:20:14;8.93;;;6.53;;
25057;SDS011;13057;50.978;11.034;2023-02-23T04:22:40;29.65;;;19.58;;
25057;SDS011;13057;50.978;11.034;2023-02-23T04:25:06;15.75;;;10.82;;
25057;SDS011;13057;50.978;11.034;2023-02-23T04:27:33;10.98;;;7.20;;
25057;SDS011;13057;50.978;11.034;2023-02-23T04:30:00;9.45;;;6.28;;
25057;SDS011;13057;50.978;11.034;2023-02-23T04:32:27;12.50;;;7.13;;
25057;SDS011;13057;50.978;11.034;2023-02-23T04:34:55;11.85;;;7.45;;
25057;SDS011;13057;50.978;11.034;2023-02-23T04:37:20;14.77;;;7.20;;
25057;SDS011;13057;50.978;11.034;2023-02-23T04:39:46;13.07;;;7.75;;
25057;SDS011;13057;50.978;11.034;2023-02-23T04:42:15;12.40;;;7.63;;
25057;SDS011;13057;50.978;11.034;2023-02-23T04:44:42;10.27;;;7.38;;
25057;SDS011;13057;50.978;11.034;2023-02-23T04:47:08;14.93;;;7.93;;
25057;SDS011;13057;50.978;11.034;2023-02-23T04:49:34;12.23;;;7.60;;
25057;SDS011;13057;50.978;11.034;2023-02-23T04:52:00;12.55;;;8.05;;
25057;SDS011;13057;50.978;11.034;2023-02-23T04:54:26;13.45;;;7.40;;
25057;SDS011;13057;50.978;11.034;2023-02-23T04:56:52;11.07;;;7.28;;
25057;SDS011;13057;50.978;11.034;2023-02-23T04:59:18;16.13;;;7.75;;
25057;SDS011;13057;50.978;11.034;2023-02-23T05:01:44;14.85;;;7.80;;
25057;SDS011;13057;50.978;11.034;2023-02-23T05:04:10;12.25;;;8.35;;
25057;SDS011;13057;50.978;11.034;2023-02-23T05:06:36;11.63;;;7.72;;
25057;SDS011;13057;50.978;11.034;2023-02-23T05:09:02;17.02;;;8.63;;
25057;SDS011;13057;50.978;11.034;2023-02-23T05:11:30;13.60;;;8.85;;
25057;SDS011;13057;50.978;11.034;2023-02-23T05:13:59;18.92;;;8.90;;
25057;SDS011;13057;50.978;11.034;2023-02-23T05:16:24;13.80;;;8.80;;
25057;SDS011;13057;50.978;11.034;2023-02-23T05:18:50;14.43;;;9.57;;
25057;SDS011;13057;50.978;11.034;2023-02-23T05:21:16;16.83;;;8.88;;
25057;SDS011;13057;50.978;11.034;2023-02-23T05:23:42;17.75;;;9.82;;
25057;SDS011;13057;50.978;11.034;2023-02-23T05:26:10;14.48;;;8.65;;
25057;SDS011;13057;50.978;11.034;2023-02-23T05:28:37;23.75;;;9.68;;
25057;SDS011;13057;50.978;11.034;2023-02-23T05:31:05;17.85;;;9.70;;
25057;SDS011;13057;50.978;11.034;2023-02-23T05:33:35;18.02;;;10.65;;
25057;SDS011;13057;50.978;11.034;2023-02-23T05:36:07;17.27;;;9.90;;
25057;SDS011;13057;50.978;11.034;2023-02-23T05:38:34;23.17;;;10.15;;
25057;SDS011;13057;50.978;11.034;2023-02-23T05:41:05;19.55;;;11.27;;
25057;SDS011;13057;50.978;11.034;2023-02-23T05:43:32;19.42;;;10.02;;
25057;SDS011;13057;50.978;11.034;2023-02-23T05:45:58;15.98;;;10.00;;
25057;SDS011;13057;50.978;11.034;2023-02-23T05:48:25;15.68;;;10.45;;
25057;SDS011;13057;50.978;11.034;2023-02-23T05:50:52;24.60;;;14.30;;
25057;SDS011;13057;50.978;11.034;2023-02-23T05:53:18;16.45;;;10.82;;
25057;SDS011;13057;50.978;11.034;2023-02-23T05:55:44;14.27;;;9.55;;
25057;SDS011;13057;50.978;11.034;2023-02-23T05:58:10;15.20;;;9.52;;
25057;SDS011;13057;50.978;11.034;2023-02-23T06:00:35;17.33;;;10.80;;
25057;SDS011;13057;50.978;11.034;2023-02-23T06:03:01;14.88;;;10.30;;
25057;SDS011;13057;50.978;11.034;2023-02-23T06:05:27;15.18;;;10.32;;
25057;SDS011;13057;50.978;11.034;2023-02-23T06:07:53;22.30;;;10.98;;
25057;SDS011;13057;50.978;11.034;2023-02-23T06:10:21;16.88;;;10.88;;
25057;SDS011;13057;50.978;11.034;2023-02-23T06:12:47;19.27;;;11.00;;
25057;SDS011;13057;50.978;11.034;2023-02-23T06:15:12;17.33;;;11.60;;
25057;SDS011;13057;50.978;11.034;2023-02-23T06:17:38;22.10;;;11.57;;
25057;SDS011;13057;50.978;11.034;2023-02-23T06:20:05;18.00;;;11.52;;
25057;SDS011;13057;50.978;11.034;2023-02-23T06:22:31;16.05;;;10.80;;
25057;SDS011;13057;50.978;11.034;2023-02-23T06:24:57;19.30;;;10.88;;
25057;SDS011;13057;50.978;11.034;2023-02-23T06:27:23;21.77;;;11.48;;
25057;SDS011;13057;50.978;11.034;2023-02-23T06:29:49;22.08;;;12.80;;
25057;SDS011;13057;50.978;11.034;2023-02-23T06:32:15;17.98;;;11.00;;
25057;SDS011;13057;50.978;11.034;2023-02-23T06:34:40;18.00;;;10.93;;
25057;SDS011;13057;50.978;11.034;2023-02-23T06:37:06;20.98;;;11.32;;
25057;SDS011;13057;50.978;11.034;2023-02-23T06:39:32;16.23;;;10.75;;
25057;SDS011;13057;50.978;11.034;2023-02-23T06:41:58;16.10;;;10.10;;
25057;SDS011;13057;50.978;11.034;2023-02-23T06:44:24;15.73;;;10.35;;
25057;SDS011;13057;50.978;11.034;2023-02-23T06:46:50;19.33;;;10.55;;
25057;SDS011;13057;50.978;11.034;2023-02-23T06:49:16;19.13;;;10.98;;
25057;SDS011;13057;50.978;11.034;2023-02-23T06:51:42;16.15;;;10.57;;
25057;SDS011;13057;50.978;11.034;2023-02-23T06:54:07;17.20;;;9.95;;
25057;SDS011;13057;50.978;11.034;2023-02-23T06:56:33;16.10;;;10.27;;
25057;SDS011;13057;50.978;11.034;2023-02-23T06:58:59;20.48;;;9.65;;
25057;SDS011;13057;50.978;11.034;2023-02-23T07:01:25;19.27;;;9.98;;
25057;SDS011;13057;50.978;11.034;2023-02-23T07:03:51;19.23;;;12.25;;
25057;SDS011;13057;50.978;11.034;2023-02-23T07:06:17;17.15;;;9.82;;
25057;SDS011;13057;50.978;11.034;2023-02-23T07:08:42;15.73;;;9.60;;
25057;SDS011;13057;50.978;11.034;2023-02-23T07:11:10;18.63;;;10.90;;
25057;SDS011;13057;50.978;11.034;2023-02-23T07:13:38;20.75;;;11.25;;
25057;SDS011;13057;50.978;11.034;2023-02-23T07:16:04;18.75;;;10.60;;
25057;SDS011;13057;50.978;11.034;2023-02-23T07:18:31;24.30;;;11.50;;
25057;SDS011;13057;50.978;11.034;2023-02-23T07:20:57;18.70;;;11.20;;
25057;SDS011;13057;50.978;11.034;2023-02-23T07:23:23;17.98;;;11.45;;
25057;SDS011;13057;50.978;11.034;2023-02-23T07:25:49;20.05;;;11.70;;
25057;SDS011;13057;50.978;11.034;2023-02-23T07:28:16;24.23;;;11.90;;
25057;SDS011;13057;50.978;11.034;2023-02-23T07:30:42;18.95;;;10.93;;
25057;SDS011;13057;50.978;11.034;2023-02-23T07:33:08;17.60;;;10.90;;
25057;SDS011;13057;50.978;11.034;2023-02-23T07:35:35;21.58;;;12.10;;
25057;SDS011;13057;50.978;11.034;2023-02-23T07:38:01;21.92;;;11.77;;
25057;SDS011;13057;50.978;11.034;2023-02-23T07:40:28;26.38;;;12.13;;
25057;SDS011;13057;50.978;11.034;2023-02-23T07:42:54;18.75;;;11.60;;
25057;SDS011;13057;50.978;11.034;2023-02-23T07:45:21;18.00;;;10.70;;
25057;SDS011;13057;50.978;11.034;2023-02-23T07:47:48;15.07;;;10.32;;
25057;SDS011;13057;50.978;11.034;2023-02-23T07:50:15;15.65;;;9.68;;
25057;SDS011;13057;50.978;11.034;2023-02-23T07:52:42;18.02;;;10.55;;
25057;SDS011;13057;50.978;11.034;2023-02-23T07:55:08;18.88;;;11.60;;
25057;SDS011;13057;50.978;11.034;2023-02-23T07:57:35;16.73;;;9.45;;
25057;SDS011;13057;50.978;11.034;2023-02-23T08:00:02;16.15;;;9.48;;
25057;SDS011;13057;50.978;11.034;2023-02-23T08:02:30;17.88;;;10.27;;
25057;SDS011;13057;50.978;11.034;2023-02-23T08:04:57;19.52;;;10.68;;
25057;SDS011;13057;50.978;11.034;2023-02-23T08:07:23;21.17;;;10.32;;
25057;SDS011;13057;50.978;11.034;2023-02-23T08:09:50;17.13;;;10.10;;
25057;SDS011;13057;50.978;11.034;2023-02-23T08:12:19;17.02;;;10.73;;
25057;SDS011;13057;50.978;11.034;2023-02-23T08:14:44;14.18;;;8.95;;
25057;SDS011;13057;50.978;11.034;2023-02-23T08:17:10;12.90;;;8.65;;
25057;SDS011;13057;50.978;11.034;2023-02-23T08:19:36;17.33;;;9.90;;
25057;SDS011;13057;50.978;11.034;2023-02-23T08:22:03;13.15;;;9.10;;
25057;SDS011;13057;50.978;11.034;2023-02-23T08:24:29;16.80;;;9.63;;
25057;SDS011;13057;50.978;11.034;2023-02-23T08:26:55;20.95;;;11.13;;
25057;SDS011;13057;50.978;11.034;2023-02-23T08:29:24;19.02;;;10.38;;
25057;SDS011;13057;50.978;11.034;2023-02-23T08:31:49;21.92;;;11.02;;
25057;SDS011;13057;50.978;11.034;2023-02-23T08:34:15;15.70;;;10.68;;
25057;SDS011;13057;50.978;11.034;2023-02-23T08:36:42;18.10;;;10.93;;
25057;SDS011;13057;50.978;11.034;2023-02-23T08:39:10;17.45;;;11.27;;
25057;SDS011;13057;50.978;11.034;2023-02-23T08:41:37;19.90;;;10.82;;
25057;SDS011;13057;50.978;11.034;2023-02-23T08:44:03;16.02;;;10.73;;
25057;SDS011;13057;50.978;11.034;2023-02-23T08:46:29;18.23;;;11.25;;
25057;SDS011;13057;50.978;11.034;2023-02-23T08:48:55;19.70;;;11.40;;
25057;SDS011;13057;50.978;11.034;2023-02-23T08:51:21;22.48;;;12.27;;
25057;SDS011;13057;50.978;11.034;2023-02-23T08:53:47;19.38;;;11.77;;
25057;SDS011;13057;50.978;11.034;2023-02-23T08:56:13;22.45;;;12.90;;
25057;SDS011;13057;50.978;11.034;2023-02-23T08:58:39;21.33;;;13.18;;
25057;SDS011;13057;50.978;11.034;2023-02-23T09:01:06;23.58;;;13.32;;
25057;SDS011;13057;50.978;11.034;2023-02-23T09:03:32;23.80;;;13.50;;
25057;SDS011;13057;50.978;11.034;2023-02-23T09:06:04;19.85;;;13.20;;
25057;SDS011;13057;50.978;11.034;2023-02-23T09:08:33;24.58;;;13.57;;
25057;SDS011;13057;50.978;11.034;2023-02-23T09:10:59;23.25;;;13.38;;
25057;SDS011;13057;50.978;11.034;2023-02-23T09:13:25;20.60;;;13.43;;
25057;SDS011;13057;50.978;11.034;2023-02-23T09:15:51;21.65;;;12.80;;
25057;SDS011;13057;50.978;11.034;2023-02-23T09:18:18;21.25;;;13.68;;
25057;SDS011;13057;50.978;11.034;2023-02-23T09:20:48;27.00;;;14.20;;
25057;SDS011;13057;50.978;11.034;2023-02-23T09:23:14;20.90;;;12.68;;
25057;SDS011;13057;50.978;11.034;2023-02-23T09:25:41;27.98;;;14.43;;
25057;SDS011;13057;50.978;11.034;2023-02-23T09:28:15;24.88;;;15.05;;
25057;SDS011;13057;50.978;11.034;2023-02-23T09:30:43;25.33;;;14.98;;
25057;SDS011;13057;50.978;11.034;2023-02-23T09:33:10;26.75;;;15.20;;
25057;SDS011;13057;50.978;11.034;2023-02-23T09:35:37;25.92;;;15.18;;
25057;SDS011;13057;50.978;11.034;2023-02-23T09:38:05;28.75;;;14.35;;
25057;SDS011;13057;50.978;11.034;2023-02-23T09:40:34;26.48;;;15.23;;
25057;SDS011;13057;50.978;11.034;2023-02-23T09:43:12;24.50;;;14.25;;
25057;SDS011;13057;50.978;11.034;2023-02-23T09:45:58;28.30;;;14.38;;
25057;SDS011;13057;50.978;11.034;2023-02-23T09:48:37;25.25;;;14.02;;
25057;SDS011;13057;50.978;11.034;2023-02-23T09:51:05;25.52;;;14.63;;
25057;SDS011;13057;50.978;11.034;2023-02-23T09:53:34;32.55;;;14.88;;
25057;SDS011;13057;50.978;11.034;2023-02-23T09:56:07;27.52;;;15.70;;
25057;SDS011;13057;50.978;11.034;2023-02-23T09:58:38;24.50;;;15.52;;
25057;SDS011;13057;50.978;11.034;2023-02-23T10:01:21;25.48;;;15.32;;
25057;SDS011;13057;50.978;11.034;2023-02-23T10:04:06;25.65;;;15.27;;
25057;SDS011;13057;50.978;11.034;2023-02-23T10:06:40;27.08;;;15.35;;
25057;SDS011;13057;50.978;11.034;2023-02-23T10:09:14;24.85;;;14.27;;
25057;SDS011;13057;50.978;11.034;2023-02-23T10:11:57;29.60;;;15.45;;
25057;SDS011;13057;50.978;11.034;2023-02-23T10:17:16;29.73;;;18.00;;
25057;SDS011;13057;50.978;11.034;2023-02-23T10:19:52;30.70;;;18.40;;
25057;SDS011;13057;50.978;11.034;2023-02-23T10:22:25;36.65;;;18.05;;
25057;SDS011;13057;50.978;11.034;2023-02-23T10:24:56;36.22;;;19.35;;
25057;SDS011;13057;50.978;11.034;2023-02-23T10:27:31;34.25;;;17.20;;
25057;SDS011;13057;50.978;11.034;2023-02-23T10:30:11;47.13;;;25.10;;
25057;SDS011;13057;50.978;11.034;2023-02-23T10:32:48;33.40;;;18.42;;
25057;SDS011;13057;50.978;11.034;2023-02-23T10:35:20;41.67;;;20.63;;
25057;SDS011;13057;50.978;11.034;2023-02-23T10:37:47;33.53;;;18.00;;
25057;SDS011;13057;50.978;11.034;2023-02-23T10:40:16;32.60;;;17.92;;
25057;SDS011;13057;50.978;11.034;2023-02-23T10:42:47;33.50;;;17.90;;
25057;SDS011;13057;50.978;11.034;2023-02-23T10:45:14;31.00;;;14.25;;
25057;SDS011;13057;50.978;11.034;2023-02-23T10:47:47;32.65;;;19.20;;
25057;SDS011;13057;50.978;11.034;2023-02-23T10:50:28;36.17;;;19.15;;
25057;SDS011;13057;50.978;11.034;2023-02-23T10:52:57;36.72;;;18.63;;
25057;SDS011;13057;50.978;11.034;2023-02-23T10:55:27;32.35;;;18.23;;
25057;SDS011;13057;50.978;11.034;2023-02-23T11:00:37;34.35;;;19.00;;
25057;SDS011;13057;50.978;11.034;2023-02-23T11:03:15;36.60;;;20.10;;
25057;SDS011;13057;50.978;11.034;2023-02-23T11:05:44;37.88;;;19.77;;
25057;SDS011;13057;50.978;11.034;2023-02-23T11:08:23;30.77;;;19.45;;
25057;SDS011;13057;50.978;11.034;2023-02-23T11:10:57;33.67;;;19.27;;
25057;SDS011;13057;50.978;11.034;2023-02-23T11:13:26;31.98;;;18.33;;
25057;SDS011;13057;50.978;11.034;2023-02-23T11:18:27;40.13;;;22.42;;
25057;SDS011;13057;50.978;11.034;2023-02-23T11:20:53;38.35;;;21.00;;
25057;SDS011;13057;50.978;11.034;2023-02-23T11:23:21;34.28;;;19.80;;
25057;SDS011;13057;50.978;11.034;2023-02-23T11:25:56;39.42;;;20.58;;
25057;SDS011;13057;50.978;11.034;2023-02-23T11:28:27;38.78;;;19.63;;
25057;SDS011;13057;50.978;11.034;2023-02-23T11:30:58;33.65;;;19.98;;
25057;SDS011;13057;50.978;11.034;2023-02-23T11:33:30;33.50;;;19.80;;
25057;SDS011;13057;50.978;11.034;2023-02-23T11:38:55;35.80;;;19.85;;
25057;SDS011;13057;50.978;11.034;2023-02-23T11:41:28;34.20;;;18.63;;
25057;SDS011;13057;50.978;11.034;2023-02-23T11:44:01;38.05;;;19.55;;
25057;SDS011;13057;50.978;11.034;2023-02-23T11:46:37;35.20;;;18.58;;
25057;SDS011;13057;50.978;11.034;2023-02-23T11:49:16;35.35;;;19.92;;
25057;SDS011;13057;50.978;11.034;2023-02-23T11:51:48;36.25;;;18.92;;
25057;SDS011;13057;50.978;11.034;2023-02-23T11:54:21;33.33;;;18.80;;
25057;SDS011;13057;50.978;11.034;2023-02-23T11:56:52;31.98;;;19.52;;
25057;SDS011;13057;50.978;11.034;2023-02-23T11:59:24;35.70;;;19.35;;
25057;SDS011;13057;50.978;11.034;2023-02-23T12:02:02;33.95;;;19.30;;
25057;SDS011;13057;50.978;11.034;2023-02-23T12:04:43;35.97;;;20.27;;
25057;SDS011;13057;50.978;11.034;2023-02-23T12:07:24;42.75;;;21.17;;
25057;SDS011;13057;50.978;11.034;2023-02-23T12:10:09;35.45;;;19.27;;
25057;SDS011;13057;50.978;11.034;2023-02-23T12:12:44;41.00;;;20.65;;
25057;SDS011;13057;50.978;11.034;2023-02-23T12:15:21;37.35;;;19.35;;
25057;SDS011;13057;50.978;11.034;2023-02-23T12:17:57;43.53;;;23.00;;
25057;SDS011;13057;50.978;11.034;2023-02-23T12:20:29;36.30;;;18.58;;
25057;SDS011;13057;50.978;11.034;2023-02-23T12:23:02;36.10;;;19.48;;
25057;SDS011;13057;50.978;11.034;2023-02-23T12:25:44;38.47;;;20.00;;
25057;SDS011;13057;50.978;11.034;2023-02-23T12:28:17;32.33;;;19.05;;
25057;SDS011;13057;50.978;11.034;2023-02-23T12:30:54;35.97;;;20.70;;
25057;SDS011;13057;50.978;11.034;2023-02-23T12:33:28;31.58;;;16.35;;
25057;SDS011;13057;50.978;11.034;2023-02-23T12:36:03;33.25;;;17.55;;
25057;SDS011;13057;50.978;11.034;2023-02-23T12:38:55;36.17;;;16.60;;
25057;SDS011;13057;50.978;11.034;2023-02-23T12:41:33;30.25;;;17.02;;
25057;SDS011;13057;50.978;11.034;2023-02-23T12:44:10;31.38;;;15.63;;
25057;SDS011;13057;50.978;11.034;2023-02-23T12:46:50;28.15;;;15.75;;
25057;SDS011;13057;50.978;11.034;2023-02-23T12:49:27;27.17;;;15.88;;
25057;SDS011;13057;50.978;11.034;2023-02-23T12:52:03;25.98;;;15.30;;
25057;SDS011;13057;50.978;11.034;2023-02-23T12:54:38;27.88;;;16.10;;
25057;SDS011;13057;50.978;11.034;2023-02-23T12:57:09;34.40;;;15.65;;
25057;SDS011;13057;50.978;11.034;2023-02-23T12:59:57;31.35;;;16.75;;
25057;SDS011;13057;50.978;11.034;2023-02-23T13:02:39;31.98;;;15.52;;
25057;SDS011;13057;50.978;11.034;2023-02-23T13:05:19;32.08;;;16.10;;
25057;SDS011;13057;50.978;11.034;2023-02-23T13:07:55;33.55;;;16.75;;
25057;SDS011;13057;50.978;11.034;2023-02-23T13:10:48;24.88;;;14.95;;
25057;SDS011;13057;50.978;11.034;2023-02-23T13:13:23;28.85;;;17.48;;
25057;SDS011;13057;50.978;11.034;2023-02-23T13:16:22;26.33;;;16.00;;
25057;SDS011;13057;50.978;11.034;2023-02-23T13:19:10;32.53;;;17.25;;
25057;SDS011;13057;50.978;11.034;2023-02-23T13:21:48;37.47;;;19.08;;
25057;SDS011;13057;50.978;11.034;2023-02-23T13:24:23;32.80;;;18.13;;
25057;SDS011;13057;50.978;11.034;2023-02-23T13:27:03;36.97;;;17.95;;
25057;SDS011;13057;50.978;11.034;2023-02-23T13:29:42;33.40;;;17.38;;
25057;SDS011;13057;50.978;11.034;2023-02-23T13:32:15;32.80;;;17.48;;
25057;SDS011;13057;50.978;11.034;2023-02-23T13:34:44;37.90;;;19.63;;
25057;SDS011;13057;50.978;11.034;2023-02-23T13:37:23;33.42;;;18.60;;
25057;SDS011;13057;50.978;11.034;2023-02-23T13:39:55;36.42;;;18.90;;
25057;SDS011;13057;50.978;11.034;2023-02-23T13:42:37;30.30;;;17.75;;
25057;SDS011;13057;50.978;11.034;2023-02-23T13:48:01;29.88;;;18.80;;
25057;SDS011;13057;50.978;11.034;2023-02-23T13:50:43;34.08;;;19.75;;
25057;SDS011;13057;50.978;11.034;2023-02-23T13:53:45;37.03;;;19.02;;
25057;SDS011;13057;50.978;11.034;2023-02-23T13:56:16;33.55;;;17.20;;
25057;SDS011;13057;50.978;11.034;2023-02-23T13:58:51;34.17;;;16.73;;
25057;SDS011;13057;50.978;11.034;2023-02-23T14:01:30;24.83;;;14.65;;
25057;SDS011;13057;50.978;11.034;2023-02-23T14:04:05;26.02;;;14.45;;
25057;SDS011;13057;50.978;11.034;2023-02-23T14:06:39;25.67;;;14.82;;
25057;SDS011;13057;50.978;11.034;2023-02-23T14:09:20;26.02;;;13.43;;
25057;SDS011;13057;50.978;11.034;2023-02-23T14:14:44;21.52;;;13.18;;
25057;SDS011;13057;50.978;11.034;2023-02-23T14:22:37;27.77;;;15.48;;
25057;SDS011;13057;50.978;11.034;2023-02-23T14:25:44;27.75;;;14.07;;
25057;SDS011;13057;50.978;11.034;2023-02-23T14:28:25;25.52;;;14.93;;
25057;SDS011;13057;50.978;11.034;2023-02-23T14:31:01;26.60;;;13.75;;
25057;SDS011;13057;50.978;11.034;2023-02-23T14:33:49;18.92;;;10.82;;
25057;SDS011;13057;50.978;11.034;2023-02-23T14:36:32;19.73;;;11.98;;
25057;SDS011;13057;50.978;11.034;2023-02-23T14:39:02;20.63;;;11.45;;
25057;SDS011;13057;50.978;11.034;2023-02-23T14:41:48;20.55;;;10.98;;
25057;SDS011;13057;50.978;11.034;2023-02-23T14:44:21;18.13;;;9.93;;
25057;SDS011;13057;50.978;11.034;2023-02-23T14:46:59;18.45;;;10.50;;
25057;SDS011;13057;50.978;11.034;2023-02-23T14:49:30;18.85;;;10.45;;
25057;SDS011;13057;50.978;11.034;2023-02-23T14:52:04;18.10;;;9.75;;
25057;SDS011;13057;50.978;11.034;2023-02-23T14:54:34;18.17;;;9.70;;
25057;SDS011;13057;50.978;11.034;2023-02-23T14:57:02;17.45;;;9.63;;
25057;SDS011;13057;50.978;11.034;2023-02-23T14:59:36;17.65;;;8.70;;
25057;SDS011;13057;50.978;11.034;2023-02-23T15:02:07;16.33;;;8.55;;
25057;SDS011;13057;50.978;11.034;2023-02-23T15:04:36;14.52;;;8.70;;
25057;SDS011;13057;50.978;11.034;2023-02-23T15:07:03;17.45;;;8.85;;
25057;SDS011;13057;50.978;11.034;2023-02-23T15:09:37;14.73;;;9.10;;
25057;SDS011;13057;50.978;11.034;2023-02-23T15:12:14;17.40;;;9.15;;